sensor_id;sensor_type;location;lat;lon;timestamp;temperature;humidity
20735;DHT22;10528;52.124;5.196;2023-06-22T00:00:02;19.60;99.90
20735;DHT22;10528;52.124;5.196;2023-06-22T00:02:37;19.60;99.90
20735;DHT22;10528;52.124;5.196;2023-06-22T00:05:05;19.60;99.90
20735;DHT22;10528;52.124;5.196;2023-06-22T00:07:32;19.60;99.90
20735;DHT22;10528;52.124;5.196;2023-06-22T00:09:59;19.60;99.90
20735;DHT22;10528;52.124;5.196;2023-06-22T00:12:25;19.60;99.90
20735;DHT22;10528;52.124;5.196;2023-06-22T00:14:52;19.50;99.90
20735;DHT22;10528;52.124;5.196;2023-06-22T00:17:19;19.50;99.90
20735;DHT22;10528;52.124;5.196;2023-06-22T00:19:49;19.50;99.90
20735;DHT22;10528;52.124;5.196;2023-06-22T00:22:20;19.50;99.90
20735;DHT22;10528;52.124;5.196;2023-06-22T00:24:56;19.50;99.90
20735;DHT22;10528;52.124;5.196;2023-06-22T00:27:23;19.50;99.90
20735;DHT22;10528;52.124;5.196;2023-06-22T00:29:50;19.40;99.90
20735;DHT22;10528;52.124;5.196;2023-06-22T00:32:17;19.40;99.90
20735;DHT22;10528;52.124;5.196;2023-06-22T00:34:46;19.50;99.90
20735;DHT22;10528;52.124;5.196;2023-06-22T00:37:13;19.50;99.90
20735;DHT22;10528;52.124;5.196;2023-06-22T00:39:42;19.50;99.90
20735;DHT22;10528;52.124;5.196;2023-06-22T00:42:10;19.50;99.90
20735;DHT22;10528;52.124;5.196;2023-06-22T00:44:37;19.40;99.90
20735;DHT22;10528;52.124;5.196;2023-06-22T00:47:04;19.40;99.90
20735;DHT22;10528;52.124;5.196;2023-06-22T00:49:33;19.30;99.90
20735;DHT22;10528;52.124;5.196;2023-06-22T00:52:00;19.30;99.90
20735;DHT22;10528;52.124;5.196;2023-06-22T00:54:27;19.20;99.90
20735;DHT22;10528;52.124;5.196;2023-06-22T00:56:55;19.30;99.90
20735;DHT22;10528;52.124;5.196;2023-06-22T00:59:24;19.20;99.90
20735;DHT22;10528;52.124;5.196;2023-06-22T01:01:52;19.10;99.90
20735;DHT22;10528;52.124;5.196;2023-06-22T01:04:21;19.00;99.90
20735;DHT22;10528;52.124;5.196;2023-06-22T01:06:58;19.00;99.90
20735;DHT22;10528;52.124;5.196;2023-06-22T01:12:53;19.00;99.90
20735;DHT22;10528;52.124;5.196;2023-06-22T01:15:32;18.90;99.90
20735;DHT22;10528;52.124;5.196;2023-06-22T01:18:04;18.80;99.90
20735;DHT22;10528;52.124;5.196;2023-06-22T01:20:36;18.80;99.90
20735;DHT22;10528;52.124;5.196;2023-06-22T01:26:17;18.80;99.90
20735;DHT22;10528;52.124;5.196;2023-06-22T01:28:50;18.70;99.90
20735;DHT22;10528;52.124;5.196;2023-06-22T01:31:24;18.70;99.90
20735;DHT22;10528;52.124;5.196;2023-06-22T01:33:59;18.70;99.90
20735;DHT22;10528;52.124;5.196;2023-06-22T01:36:29;18.70;99.90
20735;DHT22;10528;52.124;5.196;2023-06-22T01:38:58;18.60;99.90
20735;DHT22;10528;52.124;5.196;2023-06-22T01:41:26;18.60;99.90
20735;DHT22;10528;52.124;5.196;2023-06-22T01:43:56;18.60;99.90
20735;DHT22;10528;52.124;5.196;2023-06-22T01:46:23;18.50;99.90
20735;DHT22;10528;52.124;5.196;2023-06-22T01:48:50;18.50;99.90
20735;DHT22;10528;52.124;5.196;2023-06-22T01:51:18;18.40;99.90
20735;DHT22;10528;52.124;5.196;2023-06-22T01:53:45;18.40;99.90
20735;DHT22;10528;52.124;5.196;2023-06-22T01:56:17;18.40;99.90
20735;DHT22;10528;52.124;5.196;2023-06-22T02:01:59;18.40;99.90
20735;DHT22;10528;52.124;5.196;2023-06-22T02:04:48;18.30;99.90
20735;DHT22;10528;52.124;5.196;2023-06-22T02:07:23;18.20;99.90
20735;DHT22;10528;52.124;5.196;2023-06-22T02:09:55;18.20;99.90
20735;DHT22;10528;52.124;5.196;2023-06-22T02:12:26;18.20;99.90
20735;DHT22;10528;52.124;5.196;2023-06-22T02:14:56;18.20;99.90
20735;DHT22;10528;52.124;5.196;2023-06-22T02:17:25;18.20;99.90
20735;DHT22;10528;52.124;5.196;2023-06-22T02:19:53;18.10;99.90
20735;DHT22;10528;52.124;5.196;2023-06-22T02:22:20;18.10;99.90
20735;DHT22;10528;52.124;5.196;2023-06-22T02:24:47;18.10;99.90
20735;DHT22;10528;52.124;5.196;2023-06-22T02:27:14;18.10;99.90
20735;DHT22;10528;52.124;5.196;2023-06-22T02:29:41;18.10;99.90
20735;DHT22;10528;52.124;5.196;2023-06-22T02:32:08;18.10;99.90
20735;DHT22;10528;52.124;5.196;2023-06-22T02:34:35;18.00;99.90
20735;DHT22;10528;52.124;5.196;2023-06-22T02:37:03;18.00;99.90
20735;DHT22;10528;52.124;5.196;2023-06-22T02:39:31;17.90;99.90
20735;DHT22;10528;52.124;5.196;2023-06-22T02:41:58;17.90;99.90
20735;DHT22;10528;52.124;5.196;2023-06-22T02:44:25;17.90;99.90
20735;DHT22;10528;52.124;5.196;2023-06-22T02:46:52;17.90;99.90
20735;DHT22;10528;52.124;5.196;2023-06-22T02:49:20;17.80;99.90
20735;DHT22;10528;52.124;5.196;2023-06-22T02:51:48;17.80;99.90
20735;DHT22;10528;52.124;5.196;2023-06-22T02:54:18;17.80;99.90
20735;DHT22;10528;52.124;5.196;2023-06-22T02:56:49;17.80;99.90
20735;DHT22;10528;52.124;5.196;2023-06-22T02:59:17;17.80;99.90
20735;DHT22;10528;52.124;5.196;2023-06-22T03:01:47;17.90;99.90
20735;DHT22;10528;52.124;5.196;2023-06-22T03:04:20;17.80;99.90
20735;DHT22;10528;52.124;5.196;2023-06-22T03:06:47;17.80;99.90
20735;DHT22;10528;52.124;5.196;2023-06-22T03:09:18;17.70;99.90
20735;DHT22;10528;52.124;5.196;2023-06-22T03:11:45;17.80;99.90
20735;DHT22;10528;52.124;5.196;2023-06-22T03:14:12;17.70;99.90
20735;DHT22;10528;52.124;5.196;2023-06-22T03:16:39;17.70;99.90
20735;DHT22;10528;52.124;5.196;2023-06-22T03:19:07;17.70;99.90
20735;DHT22;10528;52.124;5.196;2023-06-22T03:21:34;17.60;99.90
20735;DHT22;10528;52.124;5.196;2023-06-22T03:24:01;17.70;99.90
20735;DHT22;10528;52.124;5.196;2023-06-22T03:26:28;17.60;99.90
20735;DHT22;10528;52.124;5.196;2023-06-22T03:28:56;17.60;99.90
20735;DHT22;10528;52.124;5.196;2023-06-22T03:31:23;17.50;99.90
20735;DHT22;10528;52.124;5.196;2023-06-22T03:33:52;17.40;99.90
20735;DHT22;10528;52.124;5.196;2023-06-22T03:36:19;17.60;99.90
20735;DHT22;10528;52.124;5.196;2023-06-22T03:38:47;17.60;99.90
20735;DHT22;10528;52.124;5.196;2023-06-22T03:41:16;17.50;99.90
20735;DHT22;10528;52.124;5.196;2023-06-22T03:43:43;17.60;99.90
20735;DHT22;10528;52.124;5.196;2023-06-22T03:46:10;17.60;99.90
20735;DHT22;10528;52.124;5.196;2023-06-22T03:48:38;17.60;99.90
20735;DHT22;10528;52.124;5.196;2023-06-22T03:51:06;17.50;99.90
20735;DHT22;10528;52.124;5.196;2023-06-22T03:53:33;17.60;99.90
20735;DHT22;10528;52.124;5.196;2023-06-22T03:56:00;17.60;99.90
20735;DHT22;10528;52.124;5.196;2023-06-22T03:58:27;17.70;99.90
20735;DHT22;10528;52.124;5.196;2023-06-22T04:01:00;17.70;99.90
20735;DHT22;10528;52.124;5.196;2023-06-22T04:03:26;17.70;99.90
20735;DHT22;10528;52.124;5.196;2023-06-22T04:05:54;17.70;99.90
20735;DHT22;10528;52.124;5.196;2023-06-22T04:08:20;17.80;99.90
20735;DHT22;10528;52.124;5.196;2023-06-22T04:10:47;17.90;99.90
20735;DHT22;10528;52.124;5.196;2023-06-22T04:13:14;17.90;99.90
20735;DHT22;10528;52.124;5.196;2023-06-22T04:15:41;17.90;99.90
20735;DHT22;10528;52.124;5.196;2023-06-22T04:18:08;18.00;99.90
20735;DHT22;10528;52.124;5.196;2023-06-22T04:20:35;18.10;99.90
20735;DHT22;10528;52.124;5.196;2023-06-22T04:23:03;18.20;99.90
20735;DHT22;10528;52.124;5.196;2023-06-22T04:25:30;18.10;99.90
20735;DHT22;10528;52.124;5.196;2023-06-22T04:27:57;18.20;99.90
20735;DHT22;10528;52.124;5.196;2023-06-22T04:30:24;18.30;99.90
20735;DHT22;10528;52.124;5.196;2023-06-22T04:32:51;18.40;99.90
20735;DHT22;10528;52.124;5.196;2023-06-22T04:35:25;18.50;99.90
20735;DHT22;10528;52.124;5.196;2023-06-22T04:37:53;18.40;99.90
20735;DHT22;10528;52.124;5.196;2023-06-22T04:40:23;18.40;99.90
20735;DHT22;10528;52.124;5.196;2023-06-22T04:42:50;18.60;99.90
20735;DHT22;10528;52.124;5.196;2023-06-22T04:45:20;18.60;99.90
20735;DHT22;10528;52.124;5.196;2023-06-22T04:47:48;18.60;99.90
20735;DHT22;10528;52.124;5.196;2023-06-22T04:50:16;18.70;99.90
20735;DHT22;10528;52.124;5.196;2023-06-22T04:52:44;18.70;99.90
20735;DHT22;10528;52.124;5.196;2023-06-22T04:55:12;18.90;99.90
20735;DHT22;10528;52.124;5.196;2023-06-22T04:57:41;19.40;99.90
20735;DHT22;10528;52.124;5.196;2023-06-22T05:00:12;20.30;99.90
20735;DHT22;10528;52.124;5.196;2023-06-22T05:02:40;20.90;99.90
20735;DHT22;10528;52.124;5.196;2023-06-22T05:05:08;21.20;99.90
20735;DHT22;10528;52.124;5.196;2023-06-22T05:07:36;21.30;99.90
20735;DHT22;10528;52.124;5.196;2023-06-22T05:10:03;21.30;99.90
20735;DHT22;10528;52.124;5.196;2023-06-22T05:12:31;21.40;99.90
20735;DHT22;10528;52.124;5.196;2023-06-22T05:15:03;21.40;99.90
20735;DHT22;10528;52.124;5.196;2023-06-22T05:17:31;21.70;99.90
20735;DHT22;10528;52.124;5.196;2023-06-22T05:19:58;21.70;99.90
20735;DHT22;10528;52.124;5.196;2023-06-22T05:22:25;22.00;99.90
20735;DHT22;10528;52.124;5.196;2023-06-22T05:24:52;22.60;99.90
20735;DHT22;10528;52.124;5.196;2023-06-22T05:27:22;22.80;99.90
20735;DHT22;10528;52.124;5.196;2023-06-22T05:29:49;22.70;99.90
20735;DHT22;10528;52.124;5.196;2023-06-22T05:32:16;22.80;99.90
20735;DHT22;10528;52.124;5.196;2023-06-22T05:34:43;22.90;99.90
20735;DHT22;10528;52.124;5.196;2023-06-22T05:37:10;22.90;99.90
20735;DHT22;10528;52.124;5.196;2023-06-22T05:39:37;23.20;99.90
20735;DHT22;10528;52.124;5.196;2023-06-22T05:42:05;23.50;99.90
20735;DHT22;10528;52.124;5.196;2023-06-22T05:44:36;23.40;99.90
20735;DHT22;10528;52.124;5.196;2023-06-22T05:47:06;22.80;99.90
20735;DHT22;10528;52.124;5.196;2023-06-22T05:49:33;22.50;99.90
20735;DHT22;10528;52.124;5.196;2023-06-22T05:52:00;22.80;99.90
20735;DHT22;10528;52.124;5.196;2023-06-22T05:54:28;22.50;99.90
20735;DHT22;10528;52.124;5.196;2023-06-22T05:56:55;22.60;99.90
20735;DHT22;10528;52.124;5.196;2023-06-22T05:59:22;22.80;99.90
20735;DHT22;10528;52.124;5.196;2023-06-22T06:01:49;22.40;99.90
20735;DHT22;10528;52.124;5.196;2023-06-22T06:04:19;22.60;99.90
20735;DHT22;10528;52.124;5.196;2023-06-22T06:06:46;22.40;99.90
20735;DHT22;10528;52.124;5.196;2023-06-22T06:09:16;22.50;99.90
20735;DHT22;10528;52.124;5.196;2023-06-22T06:11:46;22.70;99.90
20735;DHT22;10528;52.124;5.196;2023-06-22T06:14:13;23.60;99.90
20735;DHT22;10528;52.124;5.196;2023-06-22T06:16:40;23.80;99.90
20735;DHT22;10528;52.124;5.196;2023-06-22T06:19:07;24.10;99.90
20735;DHT22;10528;52.124;5.196;2023-06-22T06:21:34;24.20;99.90
20735;DHT22;10528;52.124;5.196;2023-06-22T06:24:01;24.00;99.90
20735;DHT22;10528;52.124;5.196;2023-06-22T06:26:28;23.80;99.90
20735;DHT22;10528;52.124;5.196;2023-06-22T06:28:56;23.60;99.90
20735;DHT22;10528;52.124;5.196;2023-06-22T06:31:24;23.80;99.90
20735;DHT22;10528;52.124;5.196;2023-06-22T06:33:51;24.40;99.90
20735;DHT22;10528;52.124;5.196;2023-06-22T06:36:18;25.10;99.90
20735;DHT22;10528;52.124;5.196;2023-06-22T06:38:45;25.40;99.90
20735;DHT22;10528;52.124;5.196;2023-06-22T06:41:15;25.80;99.90
20735;DHT22;10528;52.124;5.196;2023-06-22T06:43:42;25.60;99.90
20735;DHT22;10528;52.124;5.196;2023-06-22T06:46:10;25.40;99.90
20735;DHT22;10528;52.124;5.196;2023-06-22T06:48:37;25.20;99.90
20735;DHT22;10528;52.124;5.196;2023-06-22T06:51:04;25.50;99.90
20735;DHT22;10528;52.124;5.196;2023-06-22T06:53:31;25.50;99.90
20735;DHT22;10528;52.124;5.196;2023-06-22T06:55:58;25.50;99.90
20735;DHT22;10528;52.124;5.196;2023-06-22T06:58:25;25.40;99.90
20735;DHT22;10528;52.124;5.196;2023-06-22T07:00:52;26.20;99.90
20735;DHT22;10528;52.124;5.196;2023-06-22T07:03:19;26.60;99.90
20735;DHT22;10528;52.124;5.196;2023-06-22T07:05:46;26.60;99.90
20735;DHT22;10528;52.124;5.196;2023-06-22T07:08:13;27.00;99.90
20735;DHT22;10528;52.124;5.196;2023-06-22T07:10:40;27.20;99.90
20735;DHT22;10528;52.124;5.196;2023-06-22T07:13:07;26.50;99.90
20735;DHT22;10528;52.124;5.196;2023-06-22T07:15:33;26.70;99.90
20735;DHT22;10528;52.124;5.196;2023-06-22T07:18:00;26.70;99.90
20735;DHT22;10528;52.124;5.196;2023-06-22T07:20:27;26.50;99.90
20735;DHT22;10528;52.124;5.196;2023-06-22T07:22:55;26.70;99.90
20735;DHT22;10528;52.124;5.196;2023-06-22T07:25:22;26.80;99.90
20735;DHT22;10528;52.124;5.196;2023-06-22T07:28:00;27.20;99.90
20735;DHT22;10528;52.124;5.196;2023-06-22T07:30:30;27.40;99.90
20735;DHT22;10528;52.124;5.196;2023-06-22T07:32:59;27.30;99.90
20735;DHT22;10528;52.124;5.196;2023-06-22T07:35:30;28.00;99.90
20735;DHT22;10528;52.124;5.196;2023-06-22T07:37:57;28.20;99.90
20735;DHT22;10528;52.124;5.196;2023-06-22T07:40:24;28.30;99.90
20735;DHT22;10528;52.124;5.196;2023-06-22T07:42:51;28.70;99.90
20735;DHT22;10528;52.124;5.196;2023-06-22T07:45:19;28.50;99.90
20735;DHT22;10528;52.124;5.196;2023-06-22T07:47:46;28.60;99.90
20735;DHT22;10528;52.124;5.196;2023-06-22T07:50:13;28.30;99.90
20735;DHT22;10528;52.124;5.196;2023-06-22T07:52:40;28.70;99.90
20735;DHT22;10528;52.124;5.196;2023-06-22T07:55:07;28.20;99.90
20735;DHT22;10528;52.124;5.196;2023-06-22T07:57:35;28.20;99.90
20735;DHT22;10528;52.124;5.196;2023-06-22T08:00:04;28.60;99.90
20735;DHT22;10528;52.124;5.196;2023-06-22T08:02:44;28.20;99.90
20735;DHT22;10528;52.124;5.196;2023-06-22T08:05:14;28.30;99.90
20735;DHT22;10528;52.124;5.196;2023-06-22T08:07:45;28.40;99.90
20735;DHT22;10528;52.124;5.196;2023-06-22T08:10:14;28.80;99.90
20735;DHT22;10528;52.124;5.196;2023-06-22T08:12:42;29.10;99.90
20735;DHT22;10528;52.124;5.196;2023-06-22T08:15:09;29.10;99.90
20735;DHT22;10528;52.124;5.196;2023-06-22T08:17:38;29.00;99.90
20735;DHT22;10528;52.124;5.196;2023-06-22T08:20:06;28.60;99.90
20735;DHT22;10528;52.124;5.196;2023-06-22T08:22:41;29.10;99.90
20735;DHT22;10528;52.124;5.196;2023-06-22T08:25:10;29.40;99.90
20735;DHT22;10528;52.124;5.196;2023-06-22T08:27:37;29.10;99.90
20735;DHT22;10528;52.124;5.196;2023-06-22T08:30:05;28.80;99.90
20735;DHT22;10528;52.124;5.196;2023-06-22T08:32:34;28.50;99.90
20735;DHT22;10528;52.124;5.196;2023-06-22T08:35:01;28.80;99.90
20735;DHT22;10528;52.124;5.196;2023-06-22T08:37:28;28.40;99.90
20735;DHT22;10528;52.124;5.196;2023-06-22T08:40:04;28.20;99.90
20735;DHT22;10528;52.124;5.196;2023-06-22T08:42:35;28.80;99.90
20735;DHT22;10528;52.124;5.196;2023-06-22T08:45:02;29.30;99.90
20735;DHT22;10528;52.124;5.196;2023-06-22T08:47:29;28.90;99.90
20735;DHT22;10528;52.124;5.196;2023-06-22T08:49:56;28.50;99.90
20735;DHT22;10528;52.124;5.196;2023-06-22T08:52:23;28.10;99.90
20735;DHT22;10528;52.124;5.196;2023-06-22T08:54:50;27.70;99.90
20735;DHT22;10528;52.124;5.196;2023-06-22T08:57:18;27.70;99.90
20735;DHT22;10528;52.124;5.196;2023-06-22T08:59:45;27.60;99.90
20735;DHT22;10528;52.124;5.196;2023-06-22T09:02:11;27.80;99.90
20735;DHT22;10528;52.124;5.196;2023-06-22T09:04:38;27.50;99.90
20735;DHT22;10528;52.124;5.196;2023-06-22T09:07:06;27.20;99.90
20735;DHT22;10528;52.124;5.196;2023-06-22T09:09:33;26.90;99.90
20735;DHT22;10528;52.124;5.196;2023-06-22T09:12:00;26.80;99.90
20735;DHT22;10528;52.124;5.196;2023-06-22T09:14:27;26.70;99.90
20735;DHT22;10528;52.124;5.196;2023-06-22T09:16:53;26.80;99.90
20735;DHT22;10528;52.124;5.196;2023-06-22T09:19:20;26.70;99.90
20735;DHT22;10528;52.124;5.196;2023-06-22T09:21:47;26.90;99.90
20735;DHT22;10528;52.124;5.196;2023-06-22T09:24:14;26.80;99.90
20735;DHT22;10528;52.124;5.196;2023-06-22T09:26:41;26.80;99.90
20735;DHT22;10528;52.124;5.196;2023-06-22T09:29:08;26.70;99.90
20735;DHT22;10528;52.124;5.196;2023-06-22T09:31:35;26.70;99.90
20735;DHT22;10528;52.124;5.196;2023-06-22T09:34:02;26.60;99.90
20735;DHT22;10528;52.124;5.196;2023-06-22T09:36:29;26.30;99.90
20735;DHT22;10528;52.124;5.196;2023-06-22T09:38:56;26.50;99.90
20735;DHT22;10528;52.124;5.196;2023-06-22T09:41:25;26.80;99.90
20735;DHT22;10528;52.124;5.196;2023-06-22T09:43:52;26.80;99.90
20735;DHT22;10528;52.124;5.196;2023-06-22T09:46:22;26.90;99.90
20735;DHT22;10528;52.124;5.196;2023-06-22T09:48:51;27.00;99.90
20735;DHT22;10528;52.124;5.196;2023-06-22T09:51:19;26.50;99.90
20735;DHT22;10528;52.124;5.196;2023-06-22T09:53:48;26.70;99.90
20735;DHT22;10528;52.124;5.196;2023-06-22T09:56:15;26.90;99.90
20735;DHT22;10528;52.124;5.196;2023-06-22T09:58:43;26.80;99.90
20735;DHT22;10528;52.124;5.196;2023-06-22T10:01:11;26.50;99.90
20735;DHT22;10528;52.124;5.196;2023-06-22T10:03:38;26.30;99.90
20735;DHT22;10528;52.124;5.196;2023-06-22T10:06:05;26.30;99.90
20735;DHT22;10528;52.124;5.196;2023-06-22T10:08:32;26.30;99.90
20735;DHT22;10528;52.124;5.196;2023-06-22T10:10:59;26.20;99.90
20735;DHT22;10528;52.124;5.196;2023-06-22T10:13:26;26.10;99.90
20735;DHT22;10528;52.124;5.196;2023-06-22T10:15:52;26.10;99.90
20735;DHT22;10528;52.124;5.196;2023-06-22T10:18:20;26.10;99.90
20735;DHT22;10528;52.124;5.196;2023-06-22T10:20:48;26.10;99.90
20735;DHT22;10528;52.124;5.196;2023-06-22T10:23:21;26.00;99.90
20735;DHT22;10528;52.124;5.196;2023-06-22T10:25:48;25.90;99.90
20735;DHT22;10528;52.124;5.196;2023-06-22T10:28:15;25.80;99.90
20735;DHT22;10528;52.124;5.196;2023-06-22T10:30:43;25.80;99.90
20735;DHT22;10528;52.124;5.196;2023-06-22T10:33:11;25.80;99.90
20735;DHT22;10528;52.124;5.196;2023-06-22T10:35:39;25.70;99.90
20735;DHT22;10528;52.124;5.196;2023-06-22T10:38:06;25.80;99.90
20735;DHT22;10528;52.124;5.196;2023-06-22T10:40:33;25.50;99.90
20735;DHT22;10528;52.124;5.196;2023-06-22T10:43:00;25.50;99.90
20735;DHT22;10528;52.124;5.196;2023-06-22T10:45:27;25.40;99.90
20735;DHT22;10528;52.124;5.196;2023-06-22T10:47:55;25.50;99.90
20735;DHT22;10528;52.124;5.196;2023-06-22T10:50:22;25.50;99.90
20735;DHT22;10528;52.124;5.196;2023-06-22T10:52:51;25.60;99.90
20735;DHT22;10528;52.124;5.196;2023-06-22T10:55:18;25.60;99.90
20735;DHT22;10528;52.124;5.196;2023-06-22T10:57:45;25.60;99.90
20735;DHT22;10528;52.124;5.196;2023-06-22T11:00:14;25.60;99.90
20735;DHT22;10528;52.124;5.196;2023-06-22T11:02:42;25.60;99.90
20735;DHT22;10528;52.124;5.196;2023-06-22T11:05:10;25.60;99.90
20735;DHT22;10528;52.124;5.196;2023-06-22T11:07:41;25.60;99.90
20735;DHT22;10528;52.124;5.196;2023-06-22T11:10:13;25.50;99.90
20735;DHT22;10528;52.124;5.196;2023-06-22T11:12:40;25.50;99.90
20735;DHT22;10528;52.124;5.196;2023-06-22T11:15:08;25.50;99.90
20735;DHT22;10528;52.124;5.196;2023-06-22T11:17:36;25.40;99.90
20735;DHT22;10528;52.124;5.196;2023-06-22T11:20:03;25.40;99.90
20735;DHT22;10528;52.124;5.196;2023-06-22T11:22:39;25.30;99.90
20735;DHT22;10528;52.124;5.196;2023-06-22T11:25:07;25.20;99.90
20735;DHT22;10528;52.124;5.196;2023-06-22T11:27:34;25.20;99.90
20735;DHT22;10528;52.124;5.196;2023-06-22T11:30:01;25.20;99.90
20735;DHT22;10528;52.124;5.196;2023-06-22T11:32:29;25.20;99.90
20735;DHT22;10528;52.124;5.196;2023-06-22T11:34:56;25.20;99.90
20735;DHT22;10528;52.124;5.196;2023-06-22T11:37:23;25.10;99.90
20735;DHT22;10528;52.124;5.196;2023-06-22T11:39:50;25.10;99.90
20735;DHT22;10528;52.124;5.196;2023-06-22T11:42:32;25.10;99.90
20735;DHT22;10528;52.124;5.196;2023-06-22T11:44:59;25.20;99.90
20735;DHT22;10528;52.124;5.196;2023-06-22T11:47:26;25.20;99.90
20735;DHT22;10528;52.124;5.196;2023-06-22T11:49:53;25.40;99.90
20735;DHT22;10528;52.124;5.196;2023-06-22T11:52:20;25.30;99.90
20735;DHT22;10528;52.124;5.196;2023-06-22T11:54:47;25.40;99.90
20735;DHT22;10528;52.124;5.196;2023-06-22T11:57:14;25.40;99.90
20735;DHT22;10528;52.124;5.196;2023-06-22T11:59:41;25.50;99.90
20735;DHT22;10528;52.124;5.196;2023-06-22T12:02:08;25.40;99.90
20735;DHT22;10528;52.124;5.196;2023-06-22T12:04:36;25.40;99.90
20735;DHT22;10528;52.124;5.196;2023-06-22T12:07:04;25.30;99.90
20735;DHT22;10528;52.124;5.196;2023-06-22T12:09:32;25.30;99.90
20735;DHT22;10528;52.124;5.196;2023-06-22T12:11:59;25.20;99.90
20735;DHT22;10528;52.124;5.196;2023-06-22T12:14:26;25.20;99.90
20735;DHT22;10528;52.124;5.196;2023-06-22T12:16:56;25.30;99.90
20735;DHT22;10528;52.124;5.196;2023-06-22T12:19:23;25.30;99.90
20735;DHT22;10528;52.124;5.196;2023-06-22T12:21:50;25.40;99.90
20735;DHT22;10528;52.124;5.196;2023-06-22T12:24:17;25.20;99.90
20735;DHT22;10528;52.124;5.196;2023-06-22T12:26:44;25.20;99.90
20735;DHT22;10528;52.124;5.196;2023-06-22T12:29:11;25.20;99.90
20735;DHT22;10528;52.124;5.196;2023-06-22T12:31:38;25.10;99.90
20735;DHT22;10528;52.124;5.196;2023-06-22T12:34:06;25.20;99.90
20735;DHT22;10528;52.124;5.196;2023-06-22T12:36:33;25.20;99.90
20735;DHT22;10528;52.124;5.196;2023-06-22T12:39:00;25.10;99.90
20735;DHT22;10528;52.124;5.196;2023-06-22T12:41:26;25.20;99.90
20735;DHT22;10528;52.124;5.196;2023-06-22T12:43:53;25.10;99.90
20735;DHT22;10528;52.124;5.196;2023-06-22T12:46:20;25.10;99.90
20735;DHT22;10528;52.124;5.196;2023-06-22T12:48:47;25.00;99.90
20735;DHT22;10528;52.124;5.196;2023-06-22T12:51:21;24.90;99.90
20735;DHT22;10528;52.124;5.196;2023-06-22T12:53:48;24.90;99.90
20735;DHT22;10528;52.124;5.196;2023-06-22T12:56:15;25.00;99.90
20735;DHT22;10528;52.124;5.196;2023-06-22T12:58:42;24.90;99.90
20735;DHT22;10528;52.124;5.196;2023-06-22T13:01:09;24.80;99.90
20735;DHT22;10528;52.124;5.196;2023-06-22T13:03:36;24.70;99.90
20735;DHT22;10528;52.124;5.196;2023-06-22T13:06:03;24.70;99.90
20735;DHT22;10528;52.124;5.196;2023-06-22T13:08:31;24.70;99.90
20735;DHT22;10528;52.124;5.196;2023-06-22T13:11:18;24.60;99.90
20735;DHT22;10528;52.124;5.196;2023-06-22T13:13:45;24.40;99.90
20735;DHT22;10528;52.124;5.196;2023-06-22T13:16:12;24.30;99.90
20735;DHT22;10528;52.124;5.196;2023-06-22T13:18:39;24.10;99.90
20735;DHT22;10528;52.124;5.196;2023-06-22T13:21:06;24.00;99.90
20735;DHT22;10528;52.124;5.196;2023-06-22T13:23:33;23.70;99.90
20735;DHT22;10528;52.124;5.196;2023-06-22T13:26:00;23.70;99.90
20735;DHT22;10528;52.124;5.196;2023-06-22T13:28:27;23.60;99.90
20735;DHT22;10528;52.124;5.196;2023-06-22T13:30:56;23.60;99.90
20735;DHT22;10528;52.124;5.196;2023-06-22T13:33:23;23.60;99.90
20735;DHT22;10528;52.124;5.196;2023-06-22T13:35:50;23.50;99.90
20735;DHT22;10528;52.124;5.196;2023-06-22T13:38:17;23.40;99.90
20735;DHT22;10528;52.124;5.196;2023-06-22T13:40:44;23.30;99.90
20735;DHT22;10528;52.124;5.196;2023-06-22T13:43:11;23.30;99.90
20735;DHT22;10528;52.124;5.196;2023-06-22T13:45:38;23.20;99.90
20735;DHT22;10528;52.124;5.196;2023-06-22T13:48:05;23.30;99.90
20735;DHT22;10528;52.124;5.196;2023-06-22T13:50:32;23.20;99.90
20735;DHT22;10528;52.124;5.196;2023-06-22T13:52:59;23.20;99.90
20735;DHT22;10528;52.124;5.196;2023-06-22T13:55:26;23.20;99.90
20735;DHT22;10528;52.124;5.196;2023-06-22T13:57:54;23.20;99.90
20735;DHT22;10528;52.124;5.196;2023-06-22T14:00:21;23.10;99.90
20735;DHT22;10528;52.124;5.196;2023-06-22T14:02:48;23.10;99.90
20735;DHT22;10528;52.124;5.196;2023-06-22T14:05:15;23.00;99.90
20735;DHT22;10528;52.124;5.196;2023-06-22T14:07:42;22.90;99.90
20735;DHT22;10528;52.124;5.196;2023-06-22T14:10:09;22.90;99.90
20735;DHT22;10528;52.124;5.196;2023-06-22T14:12:36;22.80;99.90
20735;DHT22;10528;52.124;5.196;2023-06-22T14:15:03;22.80;99.90
20735;DHT22;10528;52.124;5.196;2023-06-22T14:17:31;22.90;99.90
20735;DHT22;10528;52.124;5.196;2023-06-22T14:19:58;22.70;99.90
20735;DHT22;10528;52.124;5.196;2023-06-22T14:22:25;22.90;99.90
20735;DHT22;10528;52.124;5.196;2023-06-22T14:24:53;22.70;99.90
20735;DHT22;10528;52.124;5.196;2023-06-22T14:27:20;22.70;99.90
20735;DHT22;10528;52.124;5.196;2023-06-22T14:29:47;22.70;99.90
20735;DHT22;10528;52.124;5.196;2023-06-22T14:32:14;22.70;99.90
20735;DHT22;10528;52.124;5.196;2023-06-22T14:34:41;22.60;99.90
20735;DHT22;10528;52.124;5.196;2023-06-22T14:37:08;22.60;99.90
20735;DHT22;10528;52.124;5.196;2023-06-22T14:39:39;22.60;99.90
20735;DHT22;10528;52.124;5.196;2023-06-22T14:42:06;22.60;99.90
20735;DHT22;10528;52.124;5.196;2023-06-22T14:44:35;22.50;99.90
20735;DHT22;10528;52.124;5.196;2023-06-22T14:47:02;22.40;99.90
20735;DHT22;10528;52.124;5.196;2023-06-22T14:49:29;22.40;99.90
20735;DHT22;10528;52.124;5.196;2023-06-22T14:51:56;22.50;99.90
20735;DHT22;10528;52.124;5.196;2023-06-22T14:54:23;22.50;99.90
20735;DHT22;10528;52.124;5.196;2023-06-22T14:56:50;22.30;99.90
20735;DHT22;10528;52.124;5.196;2023-06-22T14:59:17;22.30;99.90
20735;DHT22;10528;52.124;5.196;2023-06-22T15:01:44;22.20;99.90
20735;DHT22;10528;52.124;5.196;2023-06-22T15:04:14;22.20;99.90
20735;DHT22;10528;52.124;5.196;2023-06-22T15:06:42;22.00;99.90
20735;DHT22;10528;52.124;5.196;2023-06-22T15:09:10;22.00;99.90
20735;DHT22;10528;52.124;5.196;2023-06-22T15:11:37;21.90;99.90
20735;DHT22;10528;52.124;5.196;2023-06-22T15:14:04;22.00;99.90
20735;DHT22;10528;52.124;5.196;2023-06-22T15:16:31;22.00;99.90
20735;DHT22;10528;52.124;5.196;2023-06-22T15:18:58;21.80;99.90
20735;DHT22;10528;52.124;5.196;2023-06-22T15:21:25;21.80;99.90
20735;DHT22;10528;52.124;5.196;2023-06-22T15:23:52;21.80;99.90
20735;DHT22;10528;52.124;5.196;2023-06-22T15:26:20;21.70;99.90
20735;DHT22;10528;52.124;5.196;2023-06-22T15:28:47;21.70;99.90
20735;DHT22;10528;52.124;5.196;2023-06-22T15:31:14;21.60;99.90
20735;DHT22;10528;52.124;5.196;2023-06-22T15:33:41;21.70;99.90
20735;DHT22;10528;52.124;5.196;2023-06-22T15:36:08;21.60;99.90
20735;DHT22;10528;52.124;5.196;2023-06-22T15:38:35;21.60;99.90
20735;DHT22;10528;52.124;5.196;2023-06-22T15:41:02;21.60;99.90
20735;DHT22;10528;52.124;5.196;2023-06-22T15:43:29;21.60;99.90